sensor_id;sensor_type;location;lat;lon;timestamp;pressure;altitude;pressure_sealevel;temperature;humidity
65716;BME280;63484;52.054;8.518;2023-05-27T00:00:03;102007.84;;;7.72;95.91
65716;BME280;63484;52.054;8.518;2023-05-27T00:05:07;102001.94;;;7.66;96.05
65716;BME280;63484;52.054;8.518;2023-05-27T00:10:11;101994.13;;;7.64;96.12
65716;BME280;63484;52.054;8.518;2023-05-27T00:15:16;101997.75;;;7.60;96.45
65716;BME280;63484;52.054;8.518;2023-05-27T00:20:18;101990.84;;;7.56;96.25
65716;BME280;63484;52.054;8.518;2023-05-27T00:25:20;101993.72;;;7.47;96.51
65716;BME280;63484;52.054;8.518;2023-05-27T00:30:23;101996.63;;;7.37;96.98
65716;BME280;63484;52.054;8.518;2023-05-27T00:35:25;101991.56;;;7.31;96.85
65716;BME280;63484;52.054;8.518;2023-05-27T00:40:28;101995.88;;;7.32;97.69
65716;BME280;63484;52.054;8.518;2023-05-27T00:45:32;101992.59;;;7.24;97.32
65716;BME280;63484;52.054;8.518;2023-05-27T00:50:34;101992.69;;;7.21;97.56
65716;BME280;63484;52.054;8.518;2023-05-27T00:55:36;101991.00;;;7.18;98.31
65716;BME280;63484;52.054;8.518;2023-05-27T01:00:39;101979.97;;;7.05;98.16
65716;BME280;63484;52.054;8.518;2023-05-27T01:05:41;101986.25;;;7.00;98.53
65716;BME280;63484;52.054;8.518;2023-05-27T01:10:46;101988.19;;;6.92;98.73
65716;BME280;63484;52.054;8.518;2023-05-27T01:15:52;101981.19;;;6.92;99.12
65716;BME280;63484;52.054;8.518;2023-05-27T01:21:00;101976.97;;;6.87;98.91
65716;BME280;63484;52.054;8.518;2023-05-27T01:26:05;101980.50;;;6.84;98.76
65716;BME280;63484;52.054;8.518;2023-05-27T01:31:13;101974.59;;;6.76;99.13
65716;BME280;63484;52.054;8.518;2023-05-27T01:36:17;101969.63;;;6.67;99.63
65716;BME280;63484;52.054;8.518;2023-05-27T01:41:24;101965.19;;;6.71;99.85
65716;BME280;63484;52.054;8.518;2023-05-27T01:46:28;101962.69;;;6.65;100.00
65716;BME280;63484;52.054;8.518;2023-05-27T01:51:30;101968.91;;;6.61;100.00
65716;BME280;63484;52.054;8.518;2023-05-27T01:56:34;101969.94;;;6.54;100.00
65716;BME280;63484;52.054;8.518;2023-05-27T02:01:35;101957.84;;;6.50;100.00
65716;BME280;63484;52.054;8.518;2023-05-27T02:06:37;101959.56;;;6.51;100.00
65716;BME280;63484;52.054;8.518;2023-05-27T02:11:40;101957.16;;;6.42;100.00
65716;BME280;63484;52.054;8.518;2023-05-27T02:16:42;101954.63;;;6.37;100.00
65716;BME280;63484;52.054;8.518;2023-05-27T02:21:44;101953.03;;;6.32;100.00
65716;BME280;63484;52.054;8.518;2023-05-27T02:26:47;101936.28;;;6.42;100.00
65716;BME280;63484;52.054;8.518;2023-05-27T02:31:49;101957.34;;;6.33;100.00
65716;BME280;63484;52.054;8.518;2023-05-27T02:36:51;101954.94;;;6.25;100.00
65716;BME280;63484;52.054;8.518;2023-05-27T02:41:56;101955.03;;;6.21;100.00
65716;BME280;63484;52.054;8.518;2023-05-27T02:46:58;101959.50;;;6.16;100.00
65716;BME280;63484;52.054;8.518;2023-05-27T02:52:02;101939.63;;;6.09;100.00
65716;BME280;63484;52.054;8.518;2023-05-27T02:57:05;101939.75;;;6.03;100.00
65716;BME280;63484;52.054;8.518;2023-05-27T03:02:07;101948.53;;;5.99;100.00
65716;BME280;63484;52.054;8.518;2023-05-27T03:07:08;101948.47;;;6.02;100.00
65716;BME280;63484;52.054;8.518;2023-05-27T03:12:12;101957.97;;;6.06;100.00
65716;BME280;63484;52.054;8.518;2023-05-27T03:17:13;101951.84;;;6.07;100.00
65716;BME280;63484;52.054;8.518;2023-05-27T03:22:15;101950.09;;;6.07;100.00
65716;BME280;63484;52.054;8.518;2023-05-27T03:27:18;101948.53;;;5.99;100.00
65716;BME280;63484;52.054;8.518;2023-05-27T03:32:22;101948.44;;;6.03;100.00
65716;BME280;63484;52.054;8.518;2023-05-27T03:37:24;101943.94;;;6.10;100.00
65716;BME280;63484;52.054;8.518;2023-05-27T03:42:38;101936.94;;;6.12;100.00
65716;BME280;63484;52.054;8.518;2023-05-27T03:47:40;101927.22;;;6.18;100.00
65716;BME280;63484;52.054;8.518;2023-05-27T03:52:44;101919.22;;;6.26;99.92
65716;BME280;63484;52.054;8.518;2023-05-27T03:57:47;101916.41;;;6.35;99.86
65716;BME280;63484;52.054;8.518;2023-05-27T04:02:49;101924.09;;;6.41;99.18
65716;BME280;63484;52.054;8.518;2023-05-27T04:07:50;101920.25;;;6.55;98.66
65716;BME280;63484;52.054;8.518;2023-05-27T04:12:54;101923.28;;;6.74;98.12
65716;BME280;63484;52.054;8.518;2023-05-27T04:17:56;101915.81;;;6.92;96.91
65716;BME280;63484;52.054;8.518;2023-05-27T04:22:58;101917.84;;;7.15;95.61
65716;BME280;63484;52.054;8.518;2023-05-27T04:28:01;101920.72;;;7.38;94.64
65716;BME280;63484;52.054;8.518;2023-05-27T04:33:05;101907.31;;;7.50;93.69
65716;BME280;63484;52.054;8.518;2023-05-27T04:38:09;101921.66;;;7.66;93.16
65716;BME280;63484;52.054;8.518;2023-05-27T04:43:25;101914.84;;;7.90;92.22
65716;BME280;63484;52.054;8.518;2023-05-27T04:48:28;101917.78;;;8.08;91.76
65716;BME280;63484;52.054;8.518;2023-05-27T04:53:30;101910.13;;;8.31;91.68
65716;BME280;63484;52.054;8.518;2023-05-27T04:58:34;101905.19;;;8.49;91.12
65716;BME280;63484;52.054;8.518;2023-05-27T05:03:37;101914.97;;;8.70;90.34
65716;BME280;63484;52.054;8.518;2023-05-27T05:08:52;101916.28;;;8.83;90.31
65716;BME280;63484;52.054;8.518;2023-05-27T05:13:55;101904.44;;;9.22;89.39
65716;BME280;63484;52.054;8.518;2023-05-27T05:18:59;101913.66;;;9.56;87.29
65716;BME280;63484;52.054;8.518;2023-05-27T05:24:07;101911.16;;;9.76;86.95
65716;BME280;63484;52.054;8.518;2023-05-27T05:29:10;101902.66;;;10.16;84.93
65716;BME280;63484;52.054;8.518;2023-05-27T05:34:15;101907.91;;;10.38;84.57
65716;BME280;63484;52.054;8.518;2023-05-27T05:39:19;101914.78;;;10.63;84.28
65716;BME280;63484;52.054;8.518;2023-05-27T05:44:27;101911.97;;;10.88;83.58
65716;BME280;63484;52.054;8.518;2023-05-27T05:49:29;101912.72;;;11.11;82.53
65716;BME280;63484;52.054;8.518;2023-05-27T05:54:31;101920.59;;;11.52;80.40
65716;BME280;63484;52.054;8.518;2023-05-27T05:59:34;101920.50;;;11.53;80.67
65716;BME280;63484;52.054;8.518;2023-05-27T06:04:36;101922.78;;;11.81;79.73
65716;BME280;63484;52.054;8.518;2023-05-27T06:09:40;101927.94;;;12.02;79.71
65716;BME280;63484;52.054;8.518;2023-05-27T06:14:51;101929.56;;;12.05;78.77
65716;BME280;63484;52.054;8.518;2023-05-27T06:20:03;101922.72;;;12.38;78.39
65716;BME280;63484;52.054;8.518;2023-05-27T06:25:06;101927.59;;;12.64;76.13
65716;BME280;63484;52.054;8.518;2023-05-27T06:30:44;101925.75;;;13.00;75.39
65716;BME280;63484;52.054;8.518;2023-05-27T06:35:47;101930.22;;;13.34;73.34
65716;BME280;63484;52.054;8.518;2023-05-27T06:40:49;101923.47;;;13.93;72.36
65716;BME280;63484;52.054;8.518;2023-05-27T06:45:53;101914.84;;;15.27;66.15
65716;BME280;63484;52.054;8.518;2023-05-27T06:51:03;101908.97;;;17.52;58.25
65716;BME280;63484;52.054;8.518;2023-05-27T06:56:05;101905.00;;;19.48;52.05
65716;BME280;63484;52.054;8.518;2023-05-27T07:01:27;101903.97;;;22.13;44.10
65716;BME280;63484;52.054;8.518;2023-05-27T07:06:34;101903.03;;;22.52;43.22
65716;BME280;63484;52.054;8.518;2023-05-27T07:11:37;101900.38;;;23.09;42.15
65716;BME280;63484;52.054;8.518;2023-05-27T07:16:45;101904.19;;;24.98;37.56
65716;BME280;63484;52.054;8.518;2023-05-27T07:21:47;101899.19;;;24.85;35.91
65716;BME280;63484;52.054;8.518;2023-05-27T07:26:53;101897.53;;;24.39;37.34
65716;BME280;63484;52.054;8.518;2023-05-27T07:31:58;101902.50;;;25.40;35.41
65716;BME280;63484;52.054;8.518;2023-05-27T07:37:03;101880.28;;;25.71;34.89
65716;BME280;63484;52.054;8.518;2023-05-27T07:42:07;101881.00;;;26.23;34.47
65716;BME280;63484;52.054;8.518;2023-05-27T07:47:13;101882.09;;;26.54;33.57
65716;BME280;63484;52.054;8.518;2023-05-27T07:52:15;101868.06;;;26.35;33.40
65716;BME280;63484;52.054;8.518;2023-05-27T07:57:18;101870.59;;;26.36;33.90
65716;BME280;63484;52.054;8.518;2023-05-27T08:02:23;101871.50;;;25.36;34.86
65716;BME280;63484;52.054;8.518;2023-05-27T08:07:28;101854.03;;;23.99;37.14
65716;BME280;63484;52.054;8.518;2023-05-27T08:12:47;101856.69;;;25.14;35.41
65716;BME280;63484;52.054;8.518;2023-05-27T08:17:57;101849.63;;;24.96;36.16
65716;BME280;63484;52.054;8.518;2023-05-27T08:23:16;101834.81;;;23.94;38.14
65716;BME280;63484;52.054;8.518;2023-05-27T08:28:36;101820.38;;;23.32;39.51
65716;BME280;63484;52.054;8.518;2023-05-27T08:33:59;101805.63;;;21.54;42.07
65716;BME280;63484;52.054;8.518;2023-05-27T08:39:00;101798.28;;;20.01;44.70
65716;BME280;63484;52.054;8.518;2023-05-27T08:44:16;101785.13;;;19.67;45.94
65716;BME280;63484;52.054;8.518;2023-05-27T08:49:19;101787.75;;;18.89;45.57
65716;BME280;63484;52.054;8.518;2023-05-27T08:54:21;101785.72;;;19.15;44.02
65716;BME280;63484;52.054;8.518;2023-05-27T08:59:25;101781.25;;;19.15;43.90
65716;BME280;63484;52.054;8.518;2023-05-27T09:04:28;101775.69;;;19.18;44.06
65716;BME280;63484;52.054;8.518;2023-05-27T09:09:33;101764.38;;;19.26;42.60
65716;BME280;63484;52.054;8.518;2023-05-27T09:14:35;101760.97;;;18.69;44.44
65716;BME280;63484;52.054;8.518;2023-05-27T09:19:39;101758.88;;;18.61;47.41
65716;BME280;63484;52.054;8.518;2023-05-27T09:24:41;101745.25;;;18.42;47.07
65716;BME280;63484;52.054;8.518;2023-05-27T09:29:43;101744.84;;;18.59;48.70
65716;BME280;63484;52.054;8.518;2023-05-27T09:34:47;101741.97;;;18.95;48.03
65716;BME280;63484;52.054;8.518;2023-05-27T09:39:51;101741.56;;;18.67;49.33
65716;BME280;63484;52.054;8.518;2023-05-27T09:44:54;101739.53;;;19.14;49.20
65716;BME280;63484;52.054;8.518;2023-05-27T09:49:57;101733.72;;;19.54;49.03
65716;BME280;63484;52.054;8.518;2023-05-27T09:54:59;101728.13;;;19.57;49.59
65716;BME280;63484;52.054;8.518;2023-05-27T10:00:05;101726.69;;;19.53;48.20
65716;BME280;63484;52.054;8.518;2023-05-27T10:05:15;101717.13;;;19.39;49.02
65716;BME280;63484;52.054;8.518;2023-05-27T10:10:18;101715.25;;;19.62;48.83
65716;BME280;63484;52.054;8.518;2023-05-27T10:15:22;101712.16;;;19.35;47.52
65716;BME280;63484;52.054;8.518;2023-05-27T10:20:26;101700.88;;;19.31;45.31
65716;BME280;63484;52.054;8.518;2023-05-27T10:25:35;101700.44;;;19.69;47.10
65716;BME280;63484;52.054;8.518;2023-05-27T10:30:42;101696.75;;;19.27;45.78
65716;BME280;63484;52.054;8.518;2023-05-27T10:35:49;101690.31;;;19.52;48.48
65716;BME280;63484;52.054;8.518;2023-05-27T10:40:58;101689.13;;;19.87;46.85
65716;BME280;63484;52.054;8.518;2023-05-27T10:46:04;101678.44;;;19.87;44.12
65716;BME280;63484;52.054;8.518;2023-05-27T10:51:07;101672.88;;;20.52;42.29
65716;BME280;63484;52.054;8.518;2023-05-27T10:56:09;101674.53;;;20.23;42.86
65716;BME280;63484;52.054;8.518;2023-05-27T11:01:13;101673.88;;;20.30;41.13
65716;BME280;63484;52.054;8.518;2023-05-27T11:06:16;101667.31;;;20.03;41.27
65716;BME280;63484;52.054;8.518;2023-05-27T11:11:18;101664.03;;;20.31;40.86
65716;BME280;63484;52.054;8.518;2023-05-27T11:16:20;101659.28;;;20.34;40.78
65716;BME280;63484;52.054;8.518;2023-05-27T11:21:25;101651.69;;;20.39;39.65
65716;BME280;63484;52.054;8.518;2023-05-27T11:26:27;101643.81;;;20.38;38.32
65716;BME280;63484;52.054;8.518;2023-05-27T11:31:30;101637.19;;;20.32;38.48
65716;BME280;63484;52.054;8.518;2023-05-27T11:36:35;101641.00;;;20.39;38.21
65716;BME280;63484;52.054;8.518;2023-05-27T11:41:47;101630.34;;;20.70;39.24
65716;BME280;63484;52.054;8.518;2023-05-27T11:46:50;101623.31;;;20.99;39.18
65716;BME280;63484;52.054;8.518;2023-05-27T11:51:55;101620.94;;;21.05;39.69
65716;BME280;63484;52.054;8.518;2023-05-27T11:56:59;101594.03;;;20.97;41.08
65716;BME280;63484;52.054;8.518;2023-05-27T12:02:02;101598.91;;;20.92;39.00
65716;BME280;63484;52.054;8.518;2023-05-27T12:07:06;101591.25;;;21.18;37.81
65716;BME280;63484;52.054;8.518;2023-05-27T12:12:08;101590.16;;;21.39;36.64
65716;BME280;63484;52.054;8.518;2023-05-27T12:17:10;101575.09;;;21.48;38.08
65716;BME280;63484;52.054;8.518;2023-05-27T12:22:13;101567.59;;;21.70;39.84
65716;BME280;63484;52.054;8.518;2023-05-27T12:27:14;101563.38;;;21.39;39.42
65716;BME280;63484;52.054;8.518;2023-05-27T12:32:16;101557.31;;;21.37;37.27
65716;BME280;63484;52.054;8.518;2023-05-27T12:37:22;101544.03;;;21.74;38.03
65716;BME280;63484;52.054;8.518;2023-05-27T12:42:25;101545.16;;;22.00;36.33
65716;BME280;63484;52.054;8.518;2023-05-27T12:47:29;101532.28;;;22.13;38.07
65716;BME280;63484;52.054;8.518;2023-05-27T12:52:35;101536.28;;;21.71;38.19
65716;BME280;63484;52.054;8.518;2023-05-27T12:57:36;101520.09;;;21.72;39.08
65716;BME280;63484;52.054;8.518;2023-05-27T13:02:38;101530.78;;;21.72;38.70
65716;BME280;63484;52.054;8.518;2023-05-27T13:07:53;101505.16;;;21.89;37.02
65716;BME280;63484;52.054;8.518;2023-05-27T13:12:56;101505.13;;;21.98;36.75
65716;BME280;63484;52.054;8.518;2023-05-27T13:17:58;101497.25;;;22.24;36.92
65716;BME280;63484;52.054;8.518;2023-05-27T13:23:01;101494.09;;;22.02;35.99
65716;BME280;63484;52.054;8.518;2023-05-27T13:28:03;101486.50;;;21.97;35.37
65716;BME280;63484;52.054;8.518;2023-05-27T13:33:05;101480.34;;;21.97;35.57
65716;BME280;63484;52.054;8.518;2023-05-27T13:38:08;101476.00;;;22.13;35.38
65716;BME280;63484;52.054;8.518;2023-05-27T13:43:12;101469.22;;;22.19;34.86
65716;BME280;63484;52.054;8.518;2023-05-27T13:48:14;101461.28;;;22.00;35.72
65716;BME280;63484;52.054;8.518;2023-05-27T13:53:17;101458.38;;;21.64;36.74
65716;BME280;63484;52.054;8.518;2023-05-27T13:58:19;101450.59;;;21.80;36.40
65716;BME280;63484;52.054;8.518;2023-05-27T14:03:23;101446.78;;;21.92;35.99
65716;BME280;63484;52.054;8.518;2023-05-27T14:08:26;101443.06;;;22.03;35.81
65716;BME280;63484;52.054;8.518;2023-05-27T14:13:28;101439.44;;;21.94;35.46
65716;BME280;63484;52.054;8.518;2023-05-27T14:18:30;101422.88;;;22.09;35.60
65716;BME280;63484;52.054;8.518;2023-05-27T14:23:33;101413.59;;;22.30;36.71
65716;BME280;63484;52.054;8.518;2023-05-27T14:28:34;101418.31;;;22.19;35.50
65716;BME280;63484;52.054;8.518;2023-05-27T14:33:36;101405.22;;;22.16;36.52
65716;BME280;63484;52.054;8.518;2023-05-27T14:38:39;101399.44;;;21.83;36.94
65716;BME280;63484;52.054;8.518;2023-05-27T14:43:43;101391.94;;;21.87;36.44
65716;BME280;63484;52.054;8.518;2023-05-27T14:48:47;101391.31;;;22.30;36.40
65716;BME280;63484;52.054;8.518;2023-05-27T14:53:50;101381.88;;;21.98;38.20
65716;BME280;63484;52.054;8.518;2023-05-27T14:58:52;101385.56;;;21.98;37.22
65716;BME280;63484;52.054;8.518;2023-05-27T15:03:54;101381.72;;;22.00;38.59
65716;BME280;63484;52.054;8.518;2023-05-27T15:08:57;101379.28;;;22.07;36.21
65716;BME280;63484;52.054;8.518;2023-05-27T15:13:59;101384.09;;;22.03;36.54
65716;BME280;63484;52.054;8.518;2023-05-27T15:19:00;101369.53;;;21.88;36.18
65716;BME280;63484;52.054;8.518;2023-05-27T15:24:03;101372.81;;;22.09;37.36
65716;BME280;63484;52.054;8.518;2023-05-27T15:29:05;101363.78;;;21.83;38.48
65716;BME280;63484;52.054;8.518;2023-05-27T15:34:07;101365.41;;;22.21;37.96
65716;BME280;63484;52.054;8.518;2023-05-27T15:39:10;101358.63;;;21.99;39.08
65716;BME280;63484;52.054;8.518;2023-05-27T15:44:12;101357.75;;;21.71;39.70
65716;BME280;63484;52.054;8.518;2023-05-27T15:49:16;101356.34;;;21.67;39.54
65716;BME280;63484;52.054;8.518;2023-05-27T15:54:21;101340.75;;;21.53;41.38
65716;BME280;63484;52.054;8.518;2023-05-27T15:59:23;101337.84;;;21.83;38.78
65716;BME280;63484;52.054;8.518;2023-05-27T16:04:25;101336.31;;;21.71;38.70
65716;BME280;63484;52.054;8.518;2023-05-27T16:09:28;101337.16;;;21.72;39.27
65716;BME280;63484;52.054;8.518;2023-05-27T16:14:29;101331.19;;;21.87;40.23
65716;BME280;63484;52.054;8.518;2023-05-27T16:19:31;101321.25;;;21.70;39.87
65716;BME280;63484;52.054;8.518;2023-05-27T16:24:34;101313.59;;;21.48;41.00
65716;BME280;63484;52.054;8.518;2023-05-27T16:29:36;101299.47;;;21.56;40.28
65716;BME280;63484;52.054;8.518;2023-05-27T16:34:38;101302.31;;;21.45;40.61
65716;BME280;63484;52.054;8.518;2023-05-27T16:39:41;101299.28;;;21.30;41.76
65716;BME280;63484;52.054;8.518;2023-05-27T16:44:45;101298.47;;;21.30;42.54
65716;BME280;63484;52.054;8.518;2023-05-27T16:49:47;101289.91;;;21.17;41.93
65716;BME280;63484;52.054;8.518;2023-05-27T16:54:50;101283.47;;;21.37;41.37
65716;BME280;63484;52.054;8.518;2023-05-27T16:59:52;101283.19;;;21.03;41.90
65716;BME280;63484;52.054;8.518;2023-05-27T17:04:54;101278.13;;;20.91;43.40
65716;BME280;63484;52.054;8.518;2023-05-27T17:09:57;101276.81;;;20.95;43.06
65716;BME280;63484;52.054;8.518;2023-05-27T17:14:58;101263.03;;;20.90;43.18
65716;BME280;63484;52.054;8.518;2023-05-27T17:20:00;101267.03;;;20.76;42.48
65716;BME280;63484;52.054;8.518;2023-05-27T17:25:08;101261.84;;;20.65;42.86
65716;BME280;63484;52.054;8.518;2023-05-27T17:30:10;101262.41;;;20.49;42.51
65716;BME280;63484;52.054;8.518;2023-05-27T17:35:12;101261.69;;;20.47;43.00
65716;BME280;63484;52.054;8.518;2023-05-27T17:40:15;101263.13;;;20.32;43.12
65716;BME280;63484;52.054;8.518;2023-05-27T17:45:20;101263.81;;;20.25;43.23
65716;BME280;63484;52.054;8.518;2023-05-27T17:50:21;101265.38;;;20.18;43.66
65716;BME280;63484;52.054;8.518;2023-05-27T17:55:25;101260.19;;;20.16;43.70
65716;BME280;63484;52.054;8.518;2023-05-27T18:00:26;101259.13;;;19.98;43.69
65716;BME280;63484;52.054;8.518;2023-05-27T18:05:28;101250.41;;;19.87;44.03
65716;BME280;63484;52.054;8.518;2023-05-27T18:10:31;101258.25;;;19.79;44.47
65716;BME280;63484;52.054;8.518;2023-05-27T18:15:33;101258.38;;;19.68;44.42
65716;BME280;63484;52.054;8.518;2023-05-27T18:20:34;101253.69;;;19.60;45.45
65716;BME280;63484;52.054;8.518;2023-05-27T18:25:40;101255.22;;;19.44;45.86
65716;BME280;63484;52.054;8.518;2023-05-27T18:30:44;101259.22;;;19.28;46.44
65716;BME280;63484;52.054;8.518;2023-05-27T18:35:45;101260.25;;;19.16;47.20
65716;BME280;63484;52.054;8.518;2023-05-27T18:40:51;101258.22;;;18.99;47.47
65716;BME280;63484;52.054;8.518;2023-05-27T18:45:54;101258.97;;;18.90;47.71
65716;BME280;63484;52.054;8.518;2023-05-27T18:50:58;101251.41;;;18.65;48.79
65716;BME280;63484;52.054;8.518;2023-05-27T18:56:01;101255.22;;;18.52;49.03
65716;BME280;63484;52.054;8.518;2023-05-27T19:01:03;101249.84;;;18.31;49.47
65716;BME280;63484;52.054;8.518;2023-05-27T19:06:05;101250.28;;;18.16;50.28
65716;BME280;63484;52.054;8.518;2023-05-27T19:11:09;101242.00;;;17.98;51.47
65716;BME280;63484;52.054;8.518;2023-05-27T19:16:11;101242.28;;;17.84;51.35
65716;BME280;63484;52.054;8.518;2023-05-27T19:21:14;101239.19;;;17.68;52.99
65716;BME280;63484;52.054;8.518;2023-05-27T19:26:17;101249.94;;;17.44;53.18
65716;BME280;63484;52.054;8.518;2023-05-27T19:31:18;101236.78;;;17.21;54.47
65716;BME280;63484;52.054;8.518;2023-05-27T19:36:20;101247.28;;;17.00;55.20
65716;BME280;63484;52.054;8.518;2023-05-27T19:41:23;101246.88;;;16.72;56.51
65716;BME280;63484;52.054;8.518;2023-05-27T19:46:25;101238.56;;;16.41;57.88
65716;BME280;63484;52.054;8.518;2023-05-27T19:51:26;101237.41;;;16.22;59.28
65716;BME280;63484;52.054;8.518;2023-05-27T19:56:32;101230.06;;;16.02;60.23
65716;BME280;63484;52.054;8.518;2023-05-27T20:01:34;101234.81;;;15.86;62.42
65716;BME280;63484;52.054;8.518;2023-05-27T20:06:35;101228.31;;;15.66;63.00
65716;BME280;63484;52.054;8.518;2023-05-27T20:11:38;101235.69;;;15.50;63.62
65716;BME280;63484;52.054;8.518;2023-05-27T20:16:40;101235.50;;;15.28;63.56
65716;BME280;63484;52.054;8.518;2023-05-27T20:21:42;101232.47;;;15.09;64.82
65716;BME280;63484;52.054;8.518;2023-05-27T20:26:45;101232.03;;;14.90;65.91
65716;BME280;63484;52.054;8.518;2023-05-27T20:31:47;101230.97;;;14.67;68.48
65716;BME280;63484;52.054;8.518;2023-05-27T20:36:49;101229.69;;;14.48;70.05
65716;BME280;63484;52.054;8.518;2023-05-27T20:41:52;101236.25;;;14.30;71.82
65716;BME280;63484;52.054;8.518;2023-05-27T20:46:54;101224.00;;;14.15;72.12
65716;BME280;63484;52.054;8.518;2023-05-27T20:51:55;101233.91;;;13.99;74.00
65716;BME280;63484;52.054;8.518;2023-05-27T20:57:00;101232.25;;;13.83;74.95
65716;BME280;63484;52.054;8.518;2023-05-27T21:02:08;101235.16;;;13.66;76.43
65716;BME280;63484;52.054;8.518;2023-05-27T21:07:10;101234.41;;;13.50;76.13
65716;BME280;63484;52.054;8.518;2023-05-27T21:12:13;101226.31;;;13.39;77.18
65716;BME280;63484;52.054;8.518;2023-05-27T21:17:15;101228.88;;;13.27;78.19
65716;BME280;63484;52.054;8.518;2023-05-27T21:22:17;101221.56;;;13.18;78.58
65716;BME280;63484;52.054;8.518;2023-05-27T21:27:20;101222.66;;;13.14;80.15
65716;BME280;63484;52.054;8.518;2023-05-27T21:32:22;101224.19;;;13.04;81.27
65716;BME280;63484;52.054;8.518;2023-05-27T21:37:24;101211.97;;;12.87;81.89
65716;BME280;63484;52.054;8.518;2023-05-27T21:42:27;101218.22;;;12.72;82.67
65716;BME280;63484;52.054;8.518;2023-05-27T21:47:30;101218.94;;;12.60;83.57
65716;BME280;63484;52.054;8.518;2023-05-27T21:52:32;101210.16;;;12.45;84.33
65716;BME280;63484;52.054;8.518;2023-05-27T21:57:35;101208.41;;;12.30;84.71
65716;BME280;63484;52.054;8.518;2023-05-27T22:02:37;101200.56;;;12.15;86.28
65716;BME280;63484;52.054;8.518;2023-05-27T22:07:38;101192.28;;;12.07;86.49
65716;BME280;63484;52.054;8.518;2023-05-27T22:12:41;101203.00;;;12.04;87.44
65716;BME280;63484;52.054;8.518;2023-05-27T22:17:43;101194.69;;;11.96;87.59
65716;BME280;63484;52.054;8.518;2023-05-27T22:22:45;101190.97;;;11.84;87.93
65716;BME280;63484;52.054;8.518;2023-05-27T22:27:48;101189.69;;;11.76;88.96
65716;BME280;63484;52.054;8.518;2023-05-27T22:32:52;101185.88;;;11.66;89.65
65716;BME280;63484;52.054;8.518;2023-05-27T22:37:54;101182.13;;;11.54;90.63
65716;BME280;63484;52.054;8.518;2023-05-27T22:42:57;101181.66;;;11.48;90.23
65716;BME280;63484;52.054;8.518;2023-05-27T22:47:59;101177.66;;;11.41;90.89
65716;BME280;63484;52.054;8.518;2023-05-27T22:53:01;101186.63;;;11.37;91.18
65716;BME280;63484;52.054;8.518;2023-05-27T22:58:04;101174.78;;;11.30;91.34
65716;BME280;63484;52.054;8.518;2023-05-27T23:03:06;101172.63;;;11.20;91.52
65716;BME280;63484;52.054;8.518;2023-05-27T23:08:07;101177.47;;;11.12;91.96
65716;BME280;63484;52.054;8.518;2023-05-27T23:13:10;101179.59;;;11.06;91.85
65716;BME280;63484;52.054;8.518;2023-05-27T23:18:13;101173.97;;;10.96;92.34
65716;BME280;63484;52.054;8.518;2023-05-27T23:23:14;101171.00;;;10.87;92.69
65716;BME280;63484;52.054;8.518;2023-05-27T23:28:17;101166.75;;;10.84;93.25
65716;BME280;63484;52.054;8.518;2023-05-27T23:33:19;101161.81;;;10.78;93.98
65716;BME280;63484;52.054;8.518;2023-05-27T23:38:21;101169.59;;;10.64;94.00
65716;BME280;63484;52.054;8.518;2023-05-27T23:43:25;101164.56;;;10.60;94.15
65716;BME280;63484;52.054;8.518;2023-05-27T23:48:27;101158.53;;;10.58;94.42
65716;BME280;63484;52.054;8.518;2023-05-27T23:53:30;101157.06;;;10.52;94.51
65716;BME280;63484;52.054;8.518;2023-05-27T23:58:33;101157.31;;;10.48;95.31
